• Join FlightAware (Why Join?)
  • Login
  • US Flag 
12:00PM EDT


 

Airport Tracker/Info


-or-


 

Live Flight TrackerFlight Track Log ✈ EGF4086 ✈ 22-Apr-2013 ✈ KROC - KORD

Flight Track Log - Related Links

Times and Time Zones

All times are in EDT time to prevent confusion due to time zone crossing. See the EGF4086 flight status page for this flight to view local times or setup timezone preferences in your user account.

Time Position Orientation Groundspeed Altitude Reporting Facility
EDT Latitude Longitude Course Direction KTS MPH feet Rate Location/Type
03:22PM 43.0975 -77.6972 281° West 156 180 1,200  Level Cleveland Center
03:23PM 43.0733 -77.7353 229° Southwest 193 222 2,900 2,400 Climbing Cleveland Center
03:24PM 43.0881 -77.8286 282° West 221 254 6,200 2,700 Climbing Cleveland Center
03:25PM 43.1500 -78.0334 278° West  Level FlightAware Approximate
03:25PM 43.1047 -77.9131 285° West 226 260 9,000  Level Cleveland Center
03:26PM 43.1623 -78.1565 278° West  Level FlightAware Approximate
03:26PM 43.1214 -78.0061 284° West 241 277 10,300  Level Cleveland Center
03:27PM 43.1780 -78.2788 281° West  Level FlightAware Approximate
03:27PM 43.1428 -78.1219 284° West 277 319 11,700  Level Cleveland Center
03:28PM 43.1954 -78.4007 281° West  Level FlightAware Approximate
03:28PM 43.1661 -78.2464 284° West 317 365 13,100  Level Cleveland Center
03:29PM 43.1894 -78.3708 284° West 338 389 14,600 1,500 Climbing Cleveland Center
03:30PM 43.2106 -78.5067 282° West 352 405 16,100 1,440 Climbing Cleveland Center
03:31PM 43.2047 -78.6408 267° West 357 411 17,500 1,200 Climbing Cleveland Center
03:32PM 43.1944 -78.7836 264° West 362 417 18,500 1,080 Climbing Cleveland Center
03:33PM 43.1833 -78.9000 263° West 370 426 19,600 1,080 Climbing Toronto Center
03:34PM 43.1667 -79.0333 260° West 380 437 20,600 900 Climbing Toronto Center
03:35PM 43.1667 -79.2000 270° West 390 449 21,500 900 Climbing Toronto Center
03:36PM 43.1500 -79.3667 262° West 400 460 22,500 900 Climbing Toronto Center
03:37PM 43.1333 -79.5000 260° West 400 460 23,400 900 Climbing Toronto Center
03:38PM 43.1333 -79.6500 270° West 410 472 24,300 900 Climbing Toronto Center
03:39PM 43.1167 -79.8167 262° West 410 472 25,300 900 Climbing Toronto Center
03:40PM 43.1167 -79.9500 270° West 410 472 26,200 900 Climbing Toronto Center
03:41PM 43.1000 -80.1167 262° West 400 460 27,200 900 Climbing Toronto Center
03:42PM 43.1000 -80.2500 270° West 400 460 28,100 900 Climbing Toronto Center
03:43PM 43.0833 -80.4167 262° West 400 460 29,100 960 Climbing Toronto Center
03:44PM 43.0667 -80.5667 261° West 400 460 30,100 900 Climbing Toronto Center
03:45PM 43.0667 -80.7000 270° West 400 460 31,000 900 Climbing Toronto Center
03:46PM 43.0333 -80.8667 255° West 400 460 31,900 480 Climbing Toronto Center
03:47PM 43.0333 -81.0167 270° West 410 472 32,000  Climbing Toronto Center
03:48PM 43.0167 -81.1833 262° West 410 472 32,000  Level Toronto Center
03:49PM 43.0167 -81.3500 270° West 410 472 32,000  Level Toronto Center
03:50PM 43.0167 -81.4833 270° West 410 472 32,000  Level Toronto Center
03:51PM 43.0167 -81.6333 270° West 410 472 32,000  Level Toronto Center
03:52PM 43.0167 -81.8000 270° West 410 472 32,000  Level Toronto Center
03:53PM 43.0000 -81.9667 262° West 420 483 32,000  Level Toronto Center
03:54PM 43.0000 -82.1167 270° West 420 483 32,000  Level Toronto Center
03:55PM 43.0000 -82.2833 270° West 410 472 32,000  Level Toronto Center
03:56PM 43.0000 -82.4333 270° West 410 472 32,000  Level Toronto Center
03:57PM 43.0000 -82.6000 270° West 420 483 32,000  Level Toronto Center
03:58PM 42.9833 -82.7500 261° West 420 483 32,000  Level Toronto Center
03:59PM 42.9833 -82.9167 270° West 420 483 32,000  Level Toronto Center
04:00PM 42.9833 -83.0667 270° West 420 483 32,000  Level Toronto Center
04:01PM 42.9839 -83.2481 270° West 419 482 32,000  Level Cleveland Center
04:02PM 42.9800 -83.4042 268° West 419 482 32,000  Level Cleveland Center
04:03PM 42.9739 -83.5656 267° West 419 482 32,000  Level Cleveland Center
04:04PM 42.9656 -83.7242 266° West 424 488 32,000  Level Cleveland Center
04:05PM 42.9528 -83.8825 264° West 419 482 32,000  Level Cleveland Center
04:06PM 42.9378 -84.0375 263° West 424 488 32,000  Level Cleveland Center
04:07PM 42.9225 -84.1956 263° West 424 488 32,000  Level Cleveland Center
04:09PM 42.9028 -84.3903 262° West 420 483 32,000  Level Chicago Center
04:10PM 42.8850 -84.5772 263° West 416 479 32,000  Level Chicago Center
04:11PM 42.8683 -84.7328 262° West 416 479 32,000  Level Chicago Center
04:12PM 42.8531 -84.8883 262° West 415 478 32,000  Level Chicago Center
04:13PM 42.8361 -85.0425 262° West 414 476 32,000 -840 Level Chicago Center
04:14PM 42.8200 -85.1942 262° West 406 467 30,300 -1,860 Descending Chicago Center
04:15PM 42.8031 -85.3497 262° West 412 474 28,200 -2,040 Descending Chicago Center
04:16PM 42.7856 -85.5053 261° West 416 479 26,200 -1,980 Descending Chicago Center
04:17PM 42.7508 -85.6942 256° West 425 489 24,200 -1,800 Descending Chicago Center
04:18PM 42.7231 -85.8503 256° West 423 487 22,600 -1,440 Descending Chicago Center
04:19PM 42.6950 -86.0031 256° West 416 479 21,300 -1,200 Descending Chicago Center
04:20PM 42.6689 -86.1500 256° West 401 461 20,200 -1,200 Descending Chicago Center
04:21PM 42.6419 -86.2942 256° West 393 452 18,900 -1,500 Descending Chicago Center
04:22PM 42.6150 -86.4328 255° West 383 441 17,100 -1,800 Descending Chicago Center
04:23PM 42.5889 -86.5689 255° West 374 430 15,200 -1,800 Descending Chicago Center
04:24PM 42.5600 -86.7256 256° West 359 413 13,400 -1,680 Descending Chicago Center
04:25PM 42.5278 -86.8511 251° West 354 407 11,800 -1,320 Descending Chicago Center
04:26PM 42.4928 -86.9731 249° West 349 402 10,700 -900 Descending Chicago Center
04:27PM 42.4597 -87.0925 249° West 338 389 10,000 -720 Descending Chicago Center
04:28PM 42.4294 -87.2067 250° West 321 369 9,300 -540 Descending Chicago Center
04:29PM 42.4028 -87.3011 249° West 275 316 9,000 -540 Descending Chicago Center
04:30PM 42.3728 -87.4108 250° West 269 310 8,200 -660 Descending Chicago Center
04:31PM 42.3489 -87.5058 251° West 269 310 7,700 -540 Descending Chicago Center
04:32PM 42.2956 -87.5714 222° Southwest 264 304 7,100 -660 Descending Chicago Center
04:33PM 42.2383 -87.6292 217° Southwest 260 299 6,400 -1,200 Descending Chicago Center
04:34PM 42.1733 -87.7019 220° Southwest 255 293 4,700 -1,260 Descending Chicago Center
04:36PM 42.1242 -87.7581 220° Southwest 241 277 3,900 -900 Descending Chicago Center
04:36PM 42.1000 -87.7833 218° Southwest 211 243 3,200 -1,140 Descending Chicago TRACON